Time;durP1;ratioP1;P1;durP2;ratioP2;P2;SDS_P1;SDS_P2;PMS_P1;PMS_P2;Temp;Humidity;BMP_temperature;BMP_pressure;BME280_temperature;BME280_humidity;BME280_pressure;Samples;Min_cycle;Max_cycle;Signal;HPM_P1;HPM_P2
2021/11/14 00:00:56;;;;;;;59.00;28.05;;;6.70;99.90;;;;;;5058933;28;20052;-71
2021/11/14 00:03:25;;;;;;;64.05;28.60;;;6.70;99.90;;;;;;5058809;28;20502;-71
2021/11/14 00:05:53;;;;;;;58.53;28.85;;;6.70;99.90;;;;;;5057961;28;20049;-70
2021/11/14 00:08:22;;;;;;;68.55;28.58;;;6.70;99.90;;;;;;5057849;28;20071;-70
2021/11/14 00:10:52;;;;;;;62.58;27.30;;;6.70;99.90;;;;;;5058621;28;20048;-75
2021/11/14 00:13:20;;;;;;;63.38;28.50;;;6.70;99.90;;;;;;5057680;28;20055;-74
2021/11/14 00:15:47;;;;;;;65.30;28.73;;;6.70;99.90;;;;;;5058987;28;20817;-74
2021/11/14 00:18:15;;;;;;;67.88;28.40;;;6.70;99.90;;;;;;5058549;28;20460;-71
2021/11/14 00:20:43;;;;;;;63.83;27.55;;;6.60;99.90;;;;;;5058162;28;20052;-72
2021/11/14 00:23:10;;;;;;;67.10;29.75;;;6.70;99.90;;;;;;5059891;28;20102;-70
2021/11/14 00:25:38;;;;;;;56.03;26.42;;;6.70;99.90;;;;;;5056520;28;20056;-75
2021/11/14 00:28:06;;;;;;;57.78;26.23;;;6.70;99.90;;;;;;5058176;28;20171;-73
2021/11/14 00:30:34;;;;;;;57.08;26.35;;;6.70;99.90;;;;;;5056145;28;20053;-74
2021/11/14 00:33:05;;;;;;;52.92;25.10;;;6.60;99.90;;;;;;5057387;28;20072;-71
2021/11/14 00:35:33;;;;;;;54.60;25.30;;;6.60;99.90;;;;;;5056667;28;20102;-70
2021/11/14 00:38:04;;;;;;;56.45;25.27;;;6.60;99.90;;;;;;5057163;28;20048;-71
2021/11/14 00:40:34;;;;;;;54.90;24.05;;;6.60;99.90;;;;;;5056249;28;20372;-69
2021/11/14 00:43:02;;;;;;;52.90;23.23;;;6.60;99.90;;;;;;5057080;28;20052;-70
2021/11/14 00:45:33;;;;;;;57.58;23.98;;;6.50;99.90;;;;;;5056865;28;20070;-68
2021/11/14 00:48:05;;;;;;;48.75;21.90;;;6.60;99.90;;;;;;5056241;28;20053;-68
2021/11/14 00:50:34;;;;;;;51.65;20.95;;;6.50;99.90;;;;;;5055748;28;20621;-68
2021/11/14 00:53:01;;;;;;;46.35;20.75;;;6.50;99.90;;;;;;5056831;28;20444;-68
2021/11/14 00:55:31;;;;;;;49.25;22.33;;;6.50;99.90;;;;;;5056643;28;20068;-68
2021/11/14 00:57:59;;;;;;;48.42;21.88;;;6.50;99.90;;;;;;5056574;28;20060;-68
2021/11/14 01:00:28;;;;;;;53.17;22.77;;;6.60;99.90;;;;;;5057279;28;20563;-68
2021/11/14 01:02:56;;;;;;;55.30;23.63;;;6.60;99.90;;;;;;5056921;28;20044;-68
2021/11/14 01:05:28;;;;;;;59.60;24.40;;;6.60;99.90;;;;;;5055450;28;20044;-69
2021/11/14 01:07:55;;;;;;;60.00;24.23;;;6.60;99.90;;;;;;5057611;28;20054;-67
2021/11/14 01:10:25;;;;;;;71.50;24.92;;;6.60;99.90;;;;;;5055432;28;20098;-67
2021/11/14 01:12:52;;;;;;;64.10;23.92;;;6.50;99.90;;;;;;5055646;28;20044;-67
2021/11/14 01:15:24;;;;;;;57.55;24.23;;;6.50;99.90;;;;;;5055803;28;20048;-67
2021/11/14 01:17:52;;;;;;;57.92;22.70;;;6.60;99.90;;;;;;5054817;28;20075;-67
2021/11/14 01:20:22;;;;;;;70.75;24.02;;;6.60;99.90;;;;;;5053948;28;20045;-67
2021/11/14 01:22:51;;;;;;;70.47;25.33;;;6.60;99.90;;;;;;5056301;28;20053;-67
2021/11/14 01:25:19;;;;;;;81.95;27.63;;;6.60;99.90;;;;;;5053967;28;20522;-67
2021/11/14 01:27:47;;;;;;;73.35;26.70;;;6.50;99.90;;;;;;5056102;28;20109;-67
2021/11/14 01:30:24;;;;;;;67.68;25.73;;;6.60;99.90;;;;;;5056430;28;20059;-67
2021/11/14 01:32:52;;;;;;;61.53;25.40;;;6.60;99.90;;;;;;5056578;28;20079;-67
2021/11/14 01:35:20;;;;;;;62.60;23.08;;;6.60;99.90;;;;;;5057004;28;20432;-67
2021/11/14 01:37:48;;;;;;;55.33;23.38;;;6.60;99.90;;;;;;5056277;28;20101;-67
2021/11/14 01:40:21;;;;;;;58.55;22.15;;;6.60;99.90;;;;;;5057358;28;20040;-67
2021/11/14 01:42:54;;;;;;;61.38;24.20;;;6.60;99.90;;;;;;5058964;28;20067;-67
2021/11/14 01:45:26;;;;;;;53.92;21.95;;;6.60;99.90;;;;;;5059301;28;20588;-67
2021/11/14 01:47:53;;;;;;;60.63;24.08;;;6.50;99.90;;;;;;5056432;28;20064;-67
2021/11/14 01:50:21;;;;;;;57.22;22.33;;;6.50;99.90;;;;;;5055417;28;20055;-68
2021/11/14 01:52:52;;;;;;;67.18;23.70;;;6.50;99.90;;;;;;5054579;28;20542;-67
2021/11/14 01:55:23;;;;;;;54.92;22.52;;;6.50;99.90;;;;;;5054133;28;20048;-68
2021/11/14 01:57:51;;;;;;;60.88;21.70;;;6.60;99.90;;;;;;5055588;28;20467;-67
2021/11/14 02:00:21;;;;;;;56.75;21.63;;;6.50;99.90;;;;;;5054474;28;20607;-65
2021/11/14 02:02:48;;;;;;;59.78;23.25;;;6.50;99.90;;;;;;5054617;28;20067;-68
2021/11/14 02:05:17;;;;;;;57.63;21.98;;;6.50;99.90;;;;;;5054967;28;20044;-67
2021/11/14 02:07:44;;;;;;;57.25;24.00;;;6.50;99.90;;;;;;5055189;28;20087;-67
2021/11/14 02:10:11;;;;;;;56.38;20.75;;;6.50;99.90;;;;;;5055053;28;20044;-68
2021/11/14 02:12:39;;;;;;;59.78;24.65;;;6.50;99.90;;;;;;5054284;28;20049;-68
2021/11/14 02:15:07;;;;;;;61.13;23.65;;;6.50;99.90;;;;;;5054355;28;20546;-68
2021/11/14 02:17:34;;;;;;;69.53;23.80;;;6.50;99.90;;;;;;5055036;28;20075;-68
2021/11/14 02:20:04;;;;;;;65.63;23.48;;;6.50;99.90;;;;;;5055352;28;20494;-68
2021/11/14 02:22:31;;;;;;;55.88;21.42;;;6.50;99.90;;;;;;5053794;28;20052;-67
2021/11/14 02:24:59;;;;;;;62.88;21.42;;;6.50;99.90;;;;;;5053464;28;20045;-67
2021/11/14 02:27:26;;;;;;;60.72;22.48;;;6.50;99.90;;;;;;5054416;28;20052;-68
2021/11/14 02:29:53;;;;;;;68.20;23.38;;;6.50;99.90;;;;;;5054104;28;20048;-68
2021/11/14 02:32:20;;;;;;;62.78;23.17;;;6.60;99.90;;;;;;5054664;28;20092;-68
2021/11/14 02:34:47;;;;;;;64.95;24.27;;;6.50;99.90;;;;;;5054700;28;20182;-68
2021/11/14 02:37:15;;;;;;;59.35;22.45;;;6.50;99.90;;;;;;5054849;28;20048;-67
2021/11/14 02:39:43;;;;;;;64.13;23.10;;;6.40;99.90;;;;;;5054590;28;20493;-68
2021/11/14 02:42:10;;;;;;;63.78;23.60;;;6.40;99.90;;;;;;5054677;28;20055;-67
2021/11/14 02:44:37;;;;;;;57.78;21.30;;;6.40;99.90;;;;;;5055448;28;20088;-68
2021/11/14 02:47:04;;;;;;;59.05;21.90;;;6.40;99.90;;;;;;5053553;28;20082;-68
2021/11/14 02:49:31;;;;;;;52.67;21.90;;;6.40;99.90;;;;;;5054894;28;20048;-68
2021/11/14 02:51:58;;;;;;;57.80;22.52;;;6.40;99.90;;;;;;5053643;28;20398;-68
2021/11/14 02:54:27;;;;;;;61.60;21.27;;;6.40;99.90;;;;;;5054010;28;20102;-68
2021/11/14 02:56:54;;;;;;;53.53;20.05;;;6.40;99.90;;;;;;5054858;28;20467;-68
2021/11/14 02:59:21;;;;;;;56.38;22.35;;;6.50;99.90;;;;;;5055556;28;20186;-68
2021/11/14 03:01:53;;;;;;;56.22;22.25;;;6.50;99.90;;;;;;5054053;28;20121;-68
2021/11/14 03:04:23;;;;;;;56.67;21.48;;;6.50;99.90;;;;;;5054341;28;20542;-68
2021/11/14 03:06:52;;;;;;;51.13;21.95;;;6.50;99.90;;;;;;5054222;28;20048;-67
2021/11/14 03:09:19;;;;;;;66.78;21.90;;;6.50;99.90;;;;;;5053630;28;20054;-68
2021/11/14 03:11:48;;;;;;;60.72;20.45;;;6.50;99.90;;;;;;5054998;28;20052;-68
2021/11/14 03:14:15;;;;;;;55.15;21.08;;;6.50;99.90;;;;;;5054530;28;20558;-68
2021/11/14 03:16:42;;;;;;;58.53;21.70;;;6.50;99.90;;;;;;5053961;28;20574;-68
2021/11/14 03:19:10;;;;;;;60.90;22.52;;;6.50;99.90;;;;;;5054240;28;20040;-68
2021/11/14 03:21:37;;;;;;;53.10;21.92;;;6.50;99.90;;;;;;5053520;28;20316;-68
2021/11/14 03:24:04;;;;;;;56.63;22.33;;;6.60;99.90;;;;;;5053966;28;20493;-68
2021/11/14 03:26:31;;;;;;;64.45;22.02;;;6.60;99.90;;;;;;5054185;28;20074;-68
2021/11/14 03:29:00;;;;;;;58.58;22.33;;;6.60;99.90;;;;;;5055422;28;20094;-68
2021/11/14 03:31:27;;;;;;;62.47;23.25;;;6.60;99.90;;;;;;5055124;28;20048;-68
2021/11/14 03:33:56;;;;;;;59.92;21.48;;;6.60;99.90;;;;;;5053619;28;20053;-68
2021/11/14 03:36:23;;;;;;;66.85;22.42;;;6.60;99.90;;;;;;5053484;28;20087;-68
2021/11/14 03:38:52;;;;;;;61.92;22.20;;;6.60;99.90;;;;;;5054915;28;20044;-68
2021/11/14 03:41:28;;;;;;;58.20;22.63;;;6.60;99.90;;;;;;5054450;28;20049;-68
2021/11/14 03:43:56;;;;;;;59.78;21.52;;;6.60;99.90;;;;;;5054081;28;20049;-68
2021/11/14 03:46:26;;;;;;;57.35;20.85;;;6.60;99.90;;;;;;5053771;28;20048;-68
2021/11/14 03:48:55;;;;;;;55.92;22.02;;;6.60;99.90;;;;;;5056916;28;20055;-68
2021/11/14 03:51:23;;;;;;;57.95;21.27;;;6.60;99.90;;;;;;5057814;28;20224;-68
2021/11/14 03:53:51;;;;;;;54.83;20.90;;;6.60;99.90;;;;;;5057752;28;20474;-68
2021/11/14 03:56:18;;;;;;;57.33;21.08;;;6.60;99.90;;;;;;5056574;28;20102;-67
2021/11/14 03:58:45;;;;;;;61.05;21.52;;;6.60;99.90;;;;;;5057169;28;20106;-67
2021/11/14 04:01:14;;;;;;;51.15;20.95;;;6.60;99.90;;;;;;5058827;28;20106;-68
2021/11/14 04:03:43;;;;;;;60.00;22.20;;;6.60;99.90;;;;;;5057670;28;20094;-67
2021/11/14 04:06:10;;;;;;;56.15;20.58;;;6.60;99.90;;;;;;5057308;28;20094;-67
2021/11/14 04:08:37;;;;;;;67.70;21.75;;;6.60;99.90;;;;;;5057829;28;20129;-67
2021/11/14 04:11:04;;;;;;;60.50;22.33;;;6.60;99.90;;;;;;5056595;28;20103;-68
2021/11/14 04:13:34;;;;;;;55.47;20.30;;;6.60;99.90;;;;;;5057257;28;20557;-67
2021/11/14 04:16:03;;;;;;;54.10;20.25;;;6.60;99.90;;;;;;5057373;28;20048;-67
2021/11/14 04:18:30;;;;;;;57.53;21.10;;;6.60;99.90;;;;;;5057549;28;20094;-68
2021/11/14 04:20:59;;;;;;;56.65;20.98;;;6.60;99.90;;;;;;5056712;28;20049;-67
2021/11/14 04:23:26;;;;;;;49.05;19.75;;;6.60;99.90;;;;;;5056694;28;20093;-67
2021/11/14 04:25:53;;;;;;;53.88;20.05;;;6.60;99.90;;;;;;5055785;28;20429;-67
2021/11/14 04:28:21;;;;;;;56.55;21.05;;;6.60;99.90;;;;;;5057558;28;20045;-67
2021/11/14 04:30:50;;;;;;;53.55;19.48;;;6.60;99.90;;;;;;5057344;28;20044;-67
2021/11/14 04:33:18;;;;;;;53.47;20.33;;;6.60;99.90;;;;;;5056501;28;20758;-67
2021/11/14 04:35:45;;;;;;;54.70;20.52;;;6.60;99.90;;;;;;5056655;28;20071;-67
2021/11/14 04:38:14;;;;;;;59.80;20.23;;;6.60;99.90;;;;;;5057179;28;20056;-67
2021/11/14 04:40:42;;;;;;;59.50;20.00;;;6.50;99.90;;;;;;5056485;28;20048;-68
2021/11/14 04:43:10;;;;;;;56.15;20.60;;;6.60;99.90;;;;;;5055956;28;20333;-68
2021/11/14 04:45:38;;;;;;;54.65;19.08;;;6.60;99.90;;;;;;5055625;28;20064;-67
2021/11/14 04:48:06;;;;;;;48.83;19.58;;;6.50;99.90;;;;;;5056508;28;20080;-67
2021/11/14 04:50:34;;;;;;;49.90;20.48;;;6.60;99.90;;;;;;5056383;28;20518;-67
2021/11/14 04:53:02;;;;;;;52.75;18.85;;;6.50;99.90;;;;;;5056745;28;20509;-67
2021/11/14 04:55:30;;;;;;;55.40;20.15;;;6.50;99.90;;;;;;5056306;28;20094;-67
2021/11/14 04:57:57;;;;;;;54.20;20.42;;;6.50;99.90;;;;;;5057265;28;20066;-67
2021/11/14 05:00:28;;;;;;;56.45;20.58;;;6.60;99.90;;;;;;5055703;28;20048;-67
2021/11/14 05:02:55;;;;;;;47.22;18.08;;;6.60;99.90;;;;;;5054431;28;20044;-67
2021/11/14 05:05:22;;;;;;;48.80;19.25;;;6.50;99.90;;;;;;5054615;28;20508;-67
2021/11/14 05:07:50;;;;;;;50.85;20.10;;;6.60;99.90;;;;;;5057017;28;20091;-67
2021/11/14 05:10:18;;;;;;;49.40;20.38;;;6.60;99.90;;;;;;5055205;28;20056;-67
2021/11/14 05:12:46;;;;;;;54.20;18.33;;;6.60;99.90;;;;;;5056345;28;20044;-67
2021/11/14 05:15:13;;;;;;;51.75;19.42;;;6.50;99.90;;;;;;5054479;28;20044;-67
2021/11/14 05:17:41;;;;;;;49.15;18.27;;;6.60;99.90;;;;;;5055046;28;20052;-67
2021/11/14 05:20:11;;;;;;;51.60;18.48;;;6.60;99.90;;;;;;5056406;28;20428;-67
2021/11/14 05:22:38;;;;;;;52.63;19.30;;;6.50;99.90;;;;;;5056074;28;20056;-67
2021/11/14 05:25:07;;;;;;;62.53;20.15;;;6.50;99.90;;;;;;5055709;28;20044;-67
2021/11/14 05:27:34;;;;;;;52.03;19.08;;;6.50;99.90;;;;;;5054923;28;20044;-67
2021/11/14 05:30:04;;;;;;;49.40;19.42;;;6.50;99.90;;;;;;5055769;28;21017;-67
2021/11/14 05:32:32;;;;;;;56.05;20.35;;;6.50;99.90;;;;;;5055790;28;20102;-67
2021/11/14 05:34:59;;;;;;;54.83;19.05;;;6.50;99.90;;;;;;5054671;28;20102;-67
2021/11/14 05:37:26;;;;;;;49.28;19.90;;;6.50;99.90;;;;;;5055432;28;20094;-67
2021/11/14 05:39:53;;;;;;;50.90;18.98;;;6.50;99.90;;;;;;5056076;28;20045;-67
2021/11/14 05:42:20;;;;;;;54.40;19.80;;;6.50;99.90;;;;;;5055967;28;20052;-67
2021/11/14 05:44:47;;;;;;;48.30;18.63;;;6.40;99.90;;;;;;5055244;28;20045;-67
2021/11/14 05:47:15;;;;;;;50.20;18.63;;;6.50;99.90;;;;;;5055828;28;20105;-67
2021/11/14 05:49:42;;;;;;;48.92;18.65;;;6.40;99.90;;;;;;5055822;28;20469;-67
2021/11/14 05:52:09;;;;;;;50.05;18.42;;;6.40;99.90;;;;;;5055235;28;20505;-67
2021/11/14 05:54:36;;;;;;;54.33;19.90;;;6.50;99.90;;;;;;5054462;28;20996;-67
2021/11/14 05:57:04;;;;;;;58.83;18.77;;;6.40;99.90;;;;;;5055014;28;20616;-67
2021/11/14 05:59:37;;;;;;;53.85;19.83;;;6.50;99.90;;;;;;5055652;28;20044;-67
2021/11/14 06:02:08;;;;;;;59.28;19.17;;;6.40;99.90;;;;;;5055173;28;20123;-66
2021/11/14 06:04:41;;;;;;;59.38;19.58;;;6.50;99.90;;;;;;5054889;28;20532;-67
2021/11/14 06:07:08;;;;;;;54.83;18.98;;;6.40;99.90;;;;;;5055585;28;20083;-67
2021/11/14 06:09:35;;;;;;;49.53;19.48;;;6.40;99.90;;;;;;5055189;28;20401;-67
2021/11/14 06:12:02;;;;;;;51.92;19.17;;;6.40;99.90;;;;;;5054663;28;20098;-67
2021/11/14 06:14:30;;;;;;;53.72;19.45;;;6.40;99.90;;;;;;5055178;28;20048;-67
2021/11/14 06:16:57;;;;;;;61.60;19.77;;;6.40;99.90;;;;;;5054932;28;20547;-67
2021/11/14 06:19:24;;;;;;;55.40;20.02;;;6.40;99.90;;;;;;5055320;28;20053;-67
2021/11/14 06:21:52;;;;;;;54.58;19.60;;;6.40;99.90;;;;;;5054821;28;20072;-67
2021/11/14 06:24:19;;;;;;;53.17;19.13;;;6.40;99.90;;;;;;5054319;28;20048;-67
2021/11/14 06:26:46;;;;;;;51.97;18.35;;;6.40;99.90;;;;;;5053725;28;20110;-67
2021/11/14 06:29:14;;;;;;;52.90;19.90;;;6.50;99.90;;;;;;5054755;28;20492;-68
2021/11/14 06:31:41;;;;;;;51.03;18.73;;;6.40;99.90;;;;;;5054478;28;20044;-68
2021/11/14 06:34:08;;;;;;;59.45;19.33;;;6.40;99.90;;;;;;5054798;28;20188;-68
2021/11/14 06:36:35;;;;;;;62.25;20.75;;;6.40;99.90;;;;;;5054420;28;20078;-68
2021/11/14 06:39:04;;;;;;;54.08;19.95;;;6.40;99.90;;;;;;5054180;28;20052;-68
2021/11/14 06:41:31;;;;;;;62.15;21.15;;;6.40;99.90;;;;;;5054152;28;20135;-68
2021/11/14 06:43:58;;;;;;;61.47;21.45;;;6.40;99.90;;;;;;5054974;28;20094;-68
2021/11/14 06:46:25;;;;;;;56.85;20.20;;;6.40;99.90;;;;;;5054454;28;20098;-68
2021/11/14 06:48:52;;;;;;;64.93;21.15;;;6.50;99.90;;;;;;5053896;28;20105;-68
2021/11/14 06:51:19;;;;;;;58.28;21.65;;;6.50;99.90;;;;;;5054377;28;20493;-68
2021/11/14 06:53:46;;;;;;;55.42;20.73;;;6.50;99.90;;;;;;5053841;28;20075;-65
2021/11/14 06:56:15;;;;;;;52.25;18.67;;;6.50;99.90;;;;;;5054018;28;20044;-67
2021/11/14 06:58:42;;;;;;;59.55;20.67;;;6.50;99.90;;;;;;5054510;28;20063;-67
2021/11/14 07:01:09;;;;;;;56.10;20.77;;;6.40;99.90;;;;;;5054564;28;20102;-67
2021/11/14 07:03:36;;;;;;;56.10;20.33;;;6.50;99.90;;;;;;5053838;28;20052;-68
2021/11/14 07:06:03;;;;;;;55.40;20.52;;;6.50;99.90;;;;;;5053597;28;20451;-68
2021/11/14 07:08:30;;;;;;;53.97;19.95;;;6.50;99.90;;;;;;5054549;28;20052;-68
2021/11/14 07:10:57;;;;;;;51.78;19.75;;;6.50;99.90;;;;;;5054894;28;20048;-67
2021/11/14 07:13:25;;;;;;;49.20;19.75;;;6.60;99.90;;;;;;5054691;28;20084;-67
2021/11/14 07:15:52;;;;;;;51.55;19.27;;;6.60;99.90;;;;;;5056979;28;20048;-68
2021/11/14 07:18:20;;;;;;;57.22;20.58;;;6.60;99.90;;;;;;5055882;28;20181;-69
2021/11/14 07:20:47;;;;;;;55.25;20.15;;;6.60;99.90;;;;;;5053642;28;20040;-68
2021/11/14 07:23:14;;;;;;;60.42;20.92;;;6.60;99.90;;;;;;5055256;28;20101;-68
2021/11/14 07:25:41;;;;;;;59.50;20.05;;;6.70;99.90;;;;;;5057436;28;20102;-68
2021/11/14 07:28:08;;;;;;;55.90;20.38;;;6.70;99.90;;;;;;5058111;28;20060;-68
2021/11/14 07:30:36;;;;;;;55.60;19.67;;;6.70;99.90;;;;;;5058139;28;20508;-68
2021/11/14 07:33:03;;;;;;;57.70;21.35;;;6.70;99.90;;;;;;5057900;28;20323;-68
2021/11/14 07:35:31;;;;;;;55.58;20.50;;;6.70;99.90;;;;;;5057103;28;20121;-68
2021/11/14 07:37:58;;;;;;;55.17;20.30;;;6.80;99.90;;;;;;5058063;28;20052;-69
2021/11/14 07:40:26;;;;;;;55.75;21.13;;;6.80;99.90;;;;;;5057197;28;20096;-69
2021/11/14 07:42:54;;;;;;;52.67;19.75;;;6.80;99.90;;;;;;5057246;28;20060;-69
2021/11/14 07:45:23;;;;;;;54.22;20.33;;;6.80;99.90;;;;;;5058105;28;20083;-69
2021/11/14 07:47:53;;;;;;;62.70;21.20;;;6.80;99.90;;;;;;5059945;28;20083;-68
2021/11/14 07:50:22;;;;;;;62.97;21.65;;;6.90;99.90;;;;;;5060000;28;20133;-68
2021/11/14 07:52:50;;;;;;;60.67;21.60;;;6.90;99.90;;;;;;5059391;28;20129;-67
2021/11/14 07:55:17;;;;;;;62.70;21.88;;;7.00;99.90;;;;;;5059264;28;20114;-67
2021/11/14 07:57:46;;;;;;;53.55;21.13;;;7.00;99.90;;;;;;5059588;28;20056;-67
2021/11/14 08:00:15;;;;;;;62.22;21.67;;;7.00;99.90;;;;;;5058904;28;20497;-68
2021/11/14 08:02:42;;;;;;;62.72;22.42;;;6.90;99.90;;;;;;5059557;28;20086;-68
2021/11/14 08:05:12;;;;;;;71.75;24.95;;;6.90;99.90;;;;;;5058036;28;20550;-68
2021/11/14 08:07:39;;;;;;;67.47;22.08;;;7.00;99.90;;;;;;5057662;28;20179;-68
2021/11/14 08:10:07;;;;;;;67.75;23.33;;;7.00;99.90;;;;;;5058658;28;20051;-68
2021/11/14 08:12:35;;;;;;;67.70;23.95;;;7.00;99.90;;;;;;5057938;28;20505;-68
2021/11/14 08:15:02;;;;;;;63.17;24.20;;;7.00;99.90;;;;;;5058182;28;20048;-67
2021/11/14 08:17:30;;;;;;;62.75;23.45;;;7.00;99.90;;;;;;5056992;28;20103;-67
2021/11/14 08:20:00;;;;;;;63.28;22.50;;;7.10;99.90;;;;;;5056948;28;20044;-67
2021/11/14 08:22:29;;;;;;;66.63;24.85;;;7.10;99.90;;;;;;5056619;28;20094;-68
2021/11/14 08:24:56;;;;;;;61.53;23.25;;;7.10;99.90;;;;;;5057034;28;20335;-68
2021/11/14 08:27:24;;;;;;;63.22;22.75;;;7.10;99.90;;;;;;5055705;28;20409;-68
2021/11/14 08:29:52;;;;;;;61.08;22.70;;;7.10;99.90;;;;;;5056693;28;20101;-68
2021/11/14 08:32:19;;;;;;;57.42;22.55;;;7.10;99.90;;;;;;5056196;28;20044;-67
2021/11/14 08:34:47;;;;;;;66.07;22.00;;;7.20;99.90;;;;;;5055716;28;20048;-68
2021/11/14 08:37:14;;;;;;;62.25;23.52;;;7.30;99.90;;;;;;5056006;28;20040;-67
2021/11/14 08:39:43;;;;;;;63.13;25.23;;;7.40;99.90;;;;;;5056094;28;20797;-68
2021/11/14 08:42:10;;;;;;;67.38;24.27;;;7.40;99.90;;;;;;5055578;28;20060;-68
2021/11/14 08:44:37;;;;;;;56.53;22.83;;;7.50;99.90;;;;;;5055721;28;20355;-68
2021/11/14 08:47:05;;;;;;;59.72;25.13;;;7.60;99.90;;;;;;5055443;28;20052;-68
2021/11/14 08:49:32;;;;;;;61.75;24.52;;;7.70;99.90;;;;;;5056422;28;20102;-68
2021/11/14 08:51:59;;;;;;;63.60;24.25;;;7.80;99.90;;;;;;5055090;28;20114;-67
2021/11/14 08:54:26;;;;;;;59.38;22.00;;;7.80;99.90;;;;;;5054694;28;20131;-68
2021/11/14 08:56:55;;;;;;;55.15;23.52;;;7.80;99.90;;;;;;5055361;28;20082;-68
2021/11/14 08:59:22;;;;;;;56.53;23.35;;;7.90;99.90;;;;;;5054955;28;20552;-68
2021/11/14 09:01:49;;;;;;;57.22;22.55;;;7.90;99.90;;;;;;5055328;28;21171;-68
2021/11/14 09:04:16;;;;;;;64.28;24.27;;;7.90;99.90;;;;;;5055136;28;20591;-68
2021/11/14 09:06:43;;;;;;;57.22;23.00;;;7.90;99.90;;;;;;5053439;28;20049;-68
2021/11/14 09:09:12;;;;;;;58.72;24.25;;;8.00;99.90;;;;;;5053744;28;20044;-68
2021/11/14 09:11:40;;;;;;;55.20;23.25;;;8.00;99.90;;;;;;5055223;28;20497;-68
2021/11/14 09:14:08;;;;;;;71.10;25.15;;;8.10;99.90;;;;;;5054344;28;20523;-69
2021/11/14 09:16:36;;;;;;;60.40;23.85;;;8.10;99.90;;;;;;5054286;28;20117;-68
2021/11/14 09:19:04;;;;;;;56.20;23.73;;;8.20;99.90;;;;;;5054982;28;20076;-67
2021/11/14 09:21:32;;;;;;;56.38;23.38;;;8.20;99.90;;;;;;5054536;28;20083;-67
2021/11/14 09:23:59;;;;;;;52.03;21.67;;;8.30;99.90;;;;;;5054302;28;20076;-68
2021/11/14 09:26:26;;;;;;;55.90;23.00;;;8.40;99.90;;;;;;5053902;28;20048;-68
2021/11/14 09:28:53;;;;;;;53.50;22.45;;;8.40;99.90;;;;;;5054196;28;20445;-68
2021/11/14 09:31:21;;;;;;;54.22;21.98;;;8.50;99.90;;;;;;5054384;28;20083;-67
2021/11/14 09:33:48;;;;;;;57.67;24.00;;;8.50;99.90;;;;;;5054660;28;20123;-67
2021/11/14 09:36:16;;;;;;;54.80;24.48;;;8.60;99.90;;;;;;5051822;28;20048;-68
2021/11/14 09:38:43;;;;;;;60.63;24.23;;;8.60;99.90;;;;;;5054438;28;20518;-68
2021/11/14 09:41:10;;;;;;;56.63;22.45;;;8.60;99.90;;;;;;5054825;28;20053;-68
2021/11/14 09:43:37;;;;;;;55.47;23.27;;;8.60;99.90;;;;;;5053626;28;20468;-68
2021/11/14 09:46:05;;;;;;;50.53;21.58;;;8.70;99.90;;;;;;5052770;28;20098;-68
2021/11/14 09:48:34;;;;;;;53.28;22.85;;;8.70;99.90;;;;;;5054005;28;20086;-68
2021/11/14 09:51:01;;;;;;;47.35;22.55;;;8.80;99.90;;;;;;5054791;28;20040;-68
2021/11/14 09:53:30;;;;;;;55.53;22.83;;;8.90;99.90;;;;;;5053870;28;20084;-68
2021/11/14 09:55:58;;;;;;;48.88;21.33;;;9.00;99.90;;;;;;5052016;28;20079;-68
2021/11/14 09:58:25;;;;;;;50.40;20.83;;;9.10;99.90;;;;;;5053423;28;20052;-67
2021/11/14 10:00:53;;;;;;;48.30;21.02;;;9.10;99.90;;;;;;5053817;28;20355;-68
2021/11/14 10:03:21;;;;;;;47.17;20.15;;;9.20;99.90;;;;;;5053226;28;20076;-67
2021/11/14 10:05:50;;;;;;;45.40;19.40;;;9.30;99.90;;;;;;5052839;28;20067;-67
2021/11/14 10:08:20;;;;;;;46.00;19.70;;;9.50;99.90;;;;;;5054324;28;20426;-68
2021/11/14 10:10:52;;;;;;;49.70;20.67;;;9.60;99.90;;;;;;5054126;28;20083;-67
2021/11/14 10:13:21;;;;;;;50.83;21.63;;;9.70;99.90;;;;;;5052099;28;20054;-67
2021/11/14 10:15:50;;;;;;;46.45;19.73;;;10.00;99.90;;;;;;5052175;28;20080;-67
2021/11/14 10:18:20;;;;;;;40.92;19.27;;;10.00;99.90;;;;;;5053062;28;20045;-67
2021/11/14 10:20:50;;;;;;;40.63;18.75;;;9.90;99.90;;;;;;5053019;28;20048;-68
2021/11/14 10:23:20;;;;;;;42.67;19.25;;;10.00;99.90;;;;;;5053477;28;20151;-68
2021/11/14 10:25:50;;;;;;;37.47;18.38;;;10.00;99.90;;;;;;5051974;28;20162;-67
2021/11/14 10:28:20;;;;;;;40.15;18.85;;;10.00;99.90;;;;;;5052463;28;20094;-67
2021/11/14 10:30:50;;;;;;;42.42;18.13;;;10.00;99.90;;;;;;5053034;28;20498;-67
2021/11/14 10:33:18;;;;;;;34.72;17.48;;;10.10;99.90;;;;;;5052770;28;20414;-67
2021/11/14 10:35:48;;;;;;;42.80;18.45;;;10.20;99.90;;;;;;5052078;28;20041;-67
2021/11/14 10:38:21;;;;;;;38.75;18.58;;;10.30;99.90;;;;;;5053200;28;20055;-67
2021/11/14 10:40:50;;;;;;;33.83;16.70;;;10.30;99.90;;;;;;5052141;28;20076;-67
2021/11/14 10:43:18;;;;;;;36.65;17.52;;;10.20;99.90;;;;;;5052431;28;20104;-67
2021/11/14 10:45:46;;;;;;;36.00;18.08;;;10.30;99.90;;;;;;5050347;28;20045;-67
2021/11/14 10:48:15;;;;;;;31.75;17.15;;;10.40;99.90;;;;;;5052155;28;20097;-67
2021/11/14 10:50:45;;;;;;;31.95;16.75;;;10.50;99.90;;;;;;5051835;28;20123;-67
2021/11/14 10:53:13;;;;;;;33.13;17.80;;;10.30;99.90;;;;;;5051707;28;20450;-67
2021/11/14 10:55:44;;;;;;;34.00;17.92;;;10.40;99.90;;;;;;5051989;28;20091;-67
2021/11/14 10:58:12;;;;;;;31.77;17.25;;;10.50;99.90;;;;;;5055334;28;20075;-67
2021/11/14 11:00:41;;;;;;;33.75;16.80;;;10.40;99.90;;;;;;5056641;28;20052;-67
2021/11/14 11:03:09;;;;;;;32.72;16.13;;;10.60;99.90;;;;;;5055531;28;21005;-67
2021/11/14 11:05:37;;;;;;;35.90;16.88;;;10.60;99.90;;;;;;5056275;28;20045;-67
2021/11/14 11:08:07;;;;;;;33.92;16.42;;;10.60;99.90;;;;;;5056293;28;20079;-67
2021/11/14 11:10:36;;;;;;;29.90;16.00;;;10.80;99.90;;;;;;5053142;28;20456;-67
2021/11/14 11:13:08;;;;;;;31.55;16.50;;;10.80;99.90;;;;;;5051474;28;20617;-69
2021/11/14 11:15:40;;;;;;;30.65;16.40;;;10.80;99.90;;;;;;5050473;28;20059;-67
2021/11/14 11:18:09;;;;;;;30.38;15.50;;;11.00;99.90;;;;;;5052296;28;20079;-67
2021/11/14 11:20:36;;;;;;;28.67;14.65;;;11.00;99.90;;;;;;5050451;28;20088;-67
2021/11/14 11:23:07;;;;;;;27.27;14.95;;;11.10;99.90;;;;;;5051326;28;20508;-67
2021/11/14 11:25:38;;;;;;;32.13;15.30;;;11.10;99.90;;;;;;5050586;28;20348;-67
2021/11/14 11:28:09;;;;;;;28.00;15.27;;;11.00;99.90;;;;;;5051943;28;20044;-67
2021/11/14 11:30:40;;;;;;;30.60;16.70;;;11.00;99.90;;;;;;5052510;28;20087;-67
2021/11/14 11:33:07;;;;;;;30.30;16.25;;;10.90;99.90;;;;;;5054525;28;20392;-67
2021/11/14 11:35:35;;;;;;;30.45;15.98;;;11.00;99.90;;;;;;5050524;28;20044;-68
2021/11/14 11:38:03;;;;;;;28.45;15.88;;;10.90;99.90;;;;;;5049539;28;20482;-67
2021/11/14 11:40:31;;;;;;;30.80;14.73;;;10.90;99.90;;;;;;5051144;28;20045;-67
2021/11/14 11:42:58;;;;;;;30.27;14.88;;;10.80;99.90;;;;;;5055555;28;20472;-67
2021/11/14 11:45:32;;;;;;;31.15;15.75;;;11.00;99.90;;;;;;5055487;28;20051;-67
2021/11/14 11:48:01;;;;;;;27.02;14.63;;;11.10;99.90;;;;;;5057151;28;20049;-68
2021/11/14 11:50:31;;;;;;;30.15;15.70;;;11.30;99.90;;;;;;5055194;28;20102;-68
2021/11/14 11:52:58;;;;;;;30.35;16.10;;;11.10;99.90;;;;;;5052864;28;20570;-70
2021/11/14 11:55:27;;;;;;;31.58;15.20;;;11.30;99.90;;;;;;5054206;28;20142;-67
2021/11/14 11:58:07;;;;;;;32.58;15.88;;;11.30;99.90;;;;;;5051894;28;20131;-67
2021/11/14 12:00:36;;;;;;;28.05;15.05;;;11.20;99.90;;;;;;5055311;28;20076;-67
2021/11/14 12:03:24;;;;;;;25.95;13.73;;;11.20;99.90;;;;;;5056185;28;20260;-68
2021/11/14 12:05:52;;;;;;;27.33;14.00;;;11.20;99.90;;;;;;5055119;28;20516;-68
2021/11/14 12:08:19;;;;;;;27.08;14.63;;;11.20;99.90;;;;;;5048950;28;20047;-68
2021/11/14 12:10:57;;;;;;;28.45;14.98;;;11.20;99.90;;;;;;5048939;28;20053;-68
2021/11/14 12:13:28;;;;;;;30.20;14.82;;;10.90;99.90;;;;;;5047053;28;20046;-68
2021/11/14 12:16:00;;;;;;;28.42;15.00;;;10.90;99.90;;;;;;5046267;28;20520;-68
2021/11/14 12:18:38;;;;;;;26.90;14.40;;;10.90;99.90;;;;;;5049535;28;20498;-68
2021/11/14 12:21:15;;;;;;;27.90;15.20;;;11.20;99.90;;;;;;5048927;28;20045;-65
2021/11/14 12:23:58;;;;;;;28.77;15.20;;;11.30;99.90;;;;;;5050082;28;20463;-68
2021/11/14 12:26:32;;;;;;;22.02;12.85;;;11.30;99.90;;;;;;5050660;28;20504;-68
2021/11/14 12:29:03;;;;;;;30.88;14.05;;;11.30;99.90;;;;;;5052616;28;20416;-68
2021/11/14 12:31:35;;;;;;;26.25;13.80;;;11.40;99.90;;;;;;5050112;28;20752;-68
2021/11/14 12:34:10;;;;;;;27.27;13.82;;;11.30;99.90;;;;;;5052790;28;20049;-68
2021/11/14 12:36:40;;;;;;;25.55;13.73;;;11.50;99.90;;;;;;5052638;28;20748;-68
2021/11/14 12:39:17;;;;;;;27.63;13.40;;;11.70;99.90;;;;;;5053747;28;20055;-68
2021/11/14 12:41:55;;;;;;;25.60;13.55;;;12.00;99.90;;;;;;5053825;28;20408;-68